createdAt,value
2023-05-24T00:00:42.995Z,100461.63
2023-05-24T00:05:46.845Z,100469.88
2023-05-24T00:10:48.610Z,100473.94
2023-05-24T00:15:50.507Z,100472.41
2023-05-24T00:20:53.385Z,100474.41
2023-05-24T00:25:55.055Z,100471.72
2023-05-24T00:30:57.451Z,100481.31
2023-05-24T00:35:59.059Z,100477.94
2023-05-24T00:41:01.450Z,100478.28
2023-05-24T00:46:15.481Z,100489.91
2023-05-24T00:51:17.412Z,100485.19
2023-05-24T00:56:19.488Z,100499.31
2023-05-24T01:01:21.244Z,100498.81
2023-05-24T01:06:24.067Z,100500.31
2023-05-24T01:11:31.592Z,100502.50
2023-05-24T01:17:02.061Z,100499.25
2023-05-24T01:22:18.230Z,100504.13
2023-05-24T01:27:22.999Z,100511.91
2023-05-24T01:32:25.978Z,100514.78
2023-05-24T01:37:27.684Z,100520.69
2023-05-24T01:42:39.461Z,100512.66
2023-05-24T01:47:53.727Z,100510.31
2023-05-24T01:52:59.093Z,100513.22
2023-05-24T01:58:03.471Z,100519.06
2023-05-24T02:03:05.427Z,100530.13
2023-05-24T02:08:07.282Z,100529.63
2023-05-24T02:13:09.207Z,100524.25
2023-05-24T02:18:11.366Z,100522.31
2023-05-24T02:23:13.070Z,100515.69
2023-05-24T02:28:14.834Z,100513.69
2023-05-24T02:33:16.573Z,100515.16
2023-05-24T02:38:18.297Z,100504.63
2023-05-24T02:43:20.038Z,100497.66
2023-05-24T02:48:21.685Z,100504.50
2023-05-24T02:53:23.288Z,100502.78
2023-05-24T02:58:29.005Z,100503.16
2023-05-24T03:03:30.999Z,100503.00
2023-05-24T03:08:37.406Z,100504.84
2023-05-24T03:13:40.222Z,100504.38
2023-05-24T03:18:42.065Z,100510.72
2023-05-24T03:23:43.756Z,100518.66
2023-05-24T03:28:45.530Z,100523.69
2023-05-24T03:33:47.608Z,100520.75
2023-05-24T03:38:49.333Z,100521.16
2023-05-24T03:43:52.655Z,100524.75
2023-05-24T03:48:55.595Z,100529.91
2023-05-24T03:53:57.558Z,100539.38
2023-05-24T03:59:03.913Z,100534.13
2023-05-24T04:04:05.722Z,100542.34
2023-05-24T04:09:07.648Z,100552.09
2023-05-24T04:14:09.322Z,100548.69
2023-05-24T04:19:11.463Z,100556.88
2023-05-24T04:24:13.314Z,100565.19
2023-05-24T04:29:15.013Z,100565.91
2023-05-24T04:34:16.723Z,100573.00
2023-05-24T04:39:18.923Z,100562.16
2023-05-24T04:44:20.644Z,100569.72
2023-05-24T04:49:22.687Z,100575.44
2023-05-24T04:54:24.741Z,100584.28
2023-05-24T04:59:26.449Z,100589.13
2023-05-24T05:04:28.091Z,100601.25
2023-05-24T05:09:29.760Z,100602.47
2023-05-24T05:14:31.393Z,100610.03
2023-05-24T05:19:33.032Z,100610.94
2023-05-24T05:24:34.887Z,100605.88
2023-05-24T05:29:36.553Z,100608.94
2023-05-24T05:34:38.222Z,100615.81
2023-05-24T05:39:39.803Z,100612.41
2023-05-24T05:44:41.445Z,100616.56
2023-05-24T05:49:43.065Z,100624.88
2023-05-24T05:54:44.757Z,100611.66
2023-05-24T05:59:46.424Z,100617.50
2023-05-24T06:04:48.350Z,100622.66
2023-05-24T06:09:50.022Z,100609.78
2023-05-24T06:14:52.352Z,100617.13
2023-05-24T06:19:54.122Z,100630.00
2023-05-24T06:24:55.833Z,100637.38
2023-05-24T06:29:57.487Z,100639.56
2023-05-24T06:34:59.191Z,100643.03
2023-05-24T06:40:01.008Z,100637.38
2023-05-24T06:45:03.131Z,100648.84
2023-05-24T06:50:05.632Z,100654.84
2023-05-24T06:55:07.674Z,100649.44
2023-05-24T07:00:12.873Z,100645.41
2023-05-24T07:05:14.720Z,100655.22
2023-05-24T07:10:16.838Z,100656.34
2023-05-24T07:15:18.505Z,100661.31
2023-05-24T07:20:20.230Z,100659.13
2023-05-24T07:25:23.032Z,100656.91
2023-05-24T07:35:33.853Z,100677.47
2023-05-24T07:40:35.559Z,100677.06
2023-05-24T07:45:37.403Z,100673.88
2023-05-24T07:50:39.028Z,100676.19
2023-05-24T07:55:41.058Z,100682.34
2023-05-24T08:00:42.949Z,100694.09
2023-05-24T08:05:44.873Z,100693.69
2023-05-24T08:10:46.834Z,100691.81
2023-05-24T08:15:48.515Z,100701.84
2023-05-24T08:20:50.198Z,100701.97
2023-05-24T08:25:51.979Z,100699.50
2023-05-24T08:30:53.667Z,100698.22
2023-05-24T08:35:55.352Z,100699.66
2023-05-24T08:40:57.481Z,100697.88
2023-05-24T08:45:59.556Z,100702.31
2023-05-24T08:51:01.348Z,100702.75
2023-05-24T08:56:03.747Z,100709.88
2023-05-24T09:01:07.435Z,100709.84
2023-05-24T09:06:09.827Z,100703.72
2023-05-24T09:11:11.749Z,100703.38
2023-05-24T09:16:15.182Z,100692.97
2023-05-24T09:21:17.656Z,100699.66
2023-05-24T09:26:19.281Z,100709.50
2023-05-24T09:31:32.529Z,100708.31
2023-05-24T09:36:34.273Z,100711.00
2023-05-24T09:41:37.265Z,100711.19
2023-05-24T09:46:39.171Z,100707.09
2023-05-24T09:51:40.819Z,100696.13
2023-05-24T09:56:42.494Z,100703.22
2023-05-24T10:01:44.700Z,100708.13
2023-05-24T10:06:48.107Z,100713.16
2023-05-24T10:11:50.097Z,100719.75
2023-05-24T10:16:52.670Z,100717.56
2023-05-24T10:21:55.763Z,100718.88
2023-05-24T10:26:58.817Z,100712.84
2023-05-24T10:32:00.929Z,100710.16
2023-05-24T10:37:03.036Z,100715.34
2023-05-24T10:42:09.390Z,100710.13
2023-05-24T10:47:16.923Z,100715.53
2023-05-24T10:52:19.011Z,100730.69
2023-05-24T10:57:24.397Z,100733.72
2023-05-24T11:02:35.706Z,100724.44
2023-05-24T11:07:43.078Z,100729.84
2023-05-24T11:12:45.124Z,100731.69
2023-05-24T11:18:14.495Z,100739.31
2023-05-24T11:23:17.176Z,100737.09
2023-05-24T11:28:19.182Z,100732.28
2023-05-24T11:33:25.512Z,100718.72
2023-05-24T11:38:29.546Z,100723.34
2023-05-24T11:43:31.581Z,100711.81
2023-05-24T11:48:33.343Z,100719.81
2023-05-24T11:53:35.019Z,100718.16
2023-05-24T11:58:45.786Z,100734.53
2023-05-24T12:03:47.552Z,100723.97
2023-05-24T12:08:49.832Z,100722.09
2023-05-24T12:13:51.444Z,100735.84
2023-05-24T12:19:05.212Z,100744.50
2023-05-24T12:24:12.630Z,100733.34
2023-05-24T12:29:14.909Z,100721.94
2023-05-24T12:34:20.554Z,100727.59
2023-05-24T12:39:31.948Z,100738.03
2023-05-24T12:44:37.605Z,100726.75
2023-05-24T12:49:39.324Z,100724.91
2023-05-24T12:54:41.073Z,100723.59
2023-05-24T12:59:42.880Z,100730.34
2023-05-24T13:04:44.562Z,100717.88
2023-05-24T13:09:46.255Z,100710.47
2023-05-24T13:14:49.124Z,100708.22
2023-05-24T13:19:51.851Z,100706.31
2023-05-24T13:24:53.952Z,100704.88
2023-05-24T13:35:01.172Z,100699.81
2023-05-24T13:40:04.241Z,100703.66
2023-05-24T13:45:06.664Z,100696.28
2023-05-24T13:50:08.724Z,100689.16
2023-05-24T13:55:10.550Z,100689.56
2023-05-24T14:00:12.864Z,100691.94
2023-05-24T14:05:26.627Z,100685.22
2023-05-24T14:10:29.715Z,100689.00
2023-05-24T14:15:31.822Z,100684.50
2023-05-24T14:20:38.163Z,100690.41
2023-05-24T14:25:41.463Z,100696.97
2023-05-24T14:30:43.619Z,100682.47
2023-05-24T14:35:46.493Z,100681.44
2023-05-24T14:40:48.701Z,100680.47
2023-05-24T14:45:50.473Z,100683.47
2023-05-24T14:50:52.414Z,100684.00
2023-05-24T14:55:54.406Z,100681.44
2023-05-24T15:00:56.154Z,100677.25
2023-05-24T15:05:57.942Z,100685.53
2023-05-24T15:10:59.595Z,100678.41
2023-05-24T15:16:01.272Z,100684.22
2023-05-24T15:21:03.227Z,100689.63
2023-05-24T15:26:04.978Z,100683.19
2023-05-24T15:31:06.873Z,100687.72
2023-05-24T15:36:08.778Z,100692.13
2023-05-24T15:41:10.510Z,100685.66
2023-05-24T15:46:12.250Z,100684.50
2023-05-24T15:56:18.461Z,100686.19
2023-05-24T16:01:20.372Z,100697.97
2023-05-24T16:06:22.082Z,100691.28
2023-05-24T16:11:23.713Z,100686.88
2023-05-24T16:16:26.323Z,100688.03
2023-05-24T16:21:28.851Z,100672.91
2023-05-24T16:26:33.392Z,100674.91
2023-05-24T16:31:35.124Z,100677.38
2023-05-24T16:36:36.926Z,100673.19
2023-05-24T16:41:40.220Z,100684.66
2023-05-24T16:46:41.997Z,100692.91
2023-05-24T16:51:43.672Z,100688.84
2023-05-24T16:56:46.181Z,100697.25
2023-05-24T17:01:50.577Z,100689.84
2023-05-24T17:06:52.237Z,100688.69
2023-05-24T17:11:53.934Z,100684.50
2023-05-24T17:16:55.628Z,100700.34
2023-05-24T17:21:57.372Z,100698.78
2023-05-24T17:26:59.224Z,100699.16
2023-05-24T17:32:01.201Z,100701.69
2023-05-24T17:37:03.006Z,100712.16
2023-05-24T17:42:05.432Z,100718.53
2023-05-24T17:47:07.068Z,100720.59
2023-05-24T17:52:08.875Z,100720.56
2023-05-24T17:57:10.689Z,100724.28
2023-05-24T18:02:12.337Z,100727.16
2023-05-24T18:07:15.011Z,100734.41
2023-05-24T18:12:16.667Z,100722.94
2023-05-24T18:17:18.444Z,100726.53
2023-05-24T18:22:20.140Z,100740.50
2023-05-24T18:27:21.846Z,100736.25
2023-05-24T18:32:23.517Z,100739.66
2023-05-24T18:37:25.131Z,100750.94
2023-05-24T18:42:26.811Z,100750.94
2023-05-24T18:47:31.025Z,100747.56
2023-05-24T18:52:32.719Z,100757.53
2023-05-24T18:57:34.463Z,100762.75
2023-05-24T19:02:38.877Z,100756.16
2023-05-24T19:07:41.684Z,100760.06
2023-05-24T19:12:43.420Z,100753.97
2023-05-24T19:17:45.054Z,100767.78
2023-05-24T19:22:46.726Z,100776.84
2023-05-24T19:32:55.705Z,100785.97
2023-05-24T19:37:57.492Z,100791.53
2023-05-24T19:42:59.703Z,100807.44
2023-05-24T19:48:01.654Z,100812.19
2023-05-24T19:53:03.268Z,100810.56
2023-05-24T19:58:04.965Z,100809.69
2023-05-24T20:03:06.819Z,100821.59
2023-05-24T20:08:08.531Z,100824.25
2023-05-24T20:13:10.921Z,100832.94
2023-05-24T20:18:12.572Z,100839.31
2023-05-24T20:23:14.253Z,100838.44
2023-05-24T20:28:29.535Z,100848.84
2023-05-24T20:33:33.465Z,100840.59
2023-05-24T20:38:35.754Z,100836.38
2023-05-24T20:43:37.582Z,100840.88
2023-05-24T20:48:39.750Z,100852.50
2023-05-24T20:53:41.406Z,100855.56
2023-05-24T20:58:44.566Z,100864.41
2023-05-24T21:03:46.318Z,100859.81
2023-05-24T21:08:47.990Z,100866.19
2023-05-24T21:13:49.644Z,100878.19
2023-05-24T21:18:54.188Z,100878.91
2023-05-24T21:23:56.686Z,100877.66
2023-05-24T21:28:58.410Z,100880.50
2023-05-24T21:34:00.150Z,100884.97
2023-05-24T21:39:07.376Z,100887.91
2023-05-24T21:44:09.243Z,100882.59
2023-05-24T21:49:10.908Z,100878.53
2023-05-24T21:54:12.641Z,100887.94
2023-05-24T21:59:14.870Z,100888.28
2023-05-24T22:04:16.699Z,100897.34
2023-05-24T22:09:18.432Z,100895.97
2023-05-24T22:14:20.119Z,100904.09
2023-05-24T22:19:32.089Z,100900.25
2023-05-24T22:24:40.999Z,100908.59
2023-05-24T22:29:43.364Z,100904.31
2023-05-24T22:34:45.144Z,100911.00
2023-05-24T22:39:46.729Z,100917.34
2023-05-24T22:44:48.376Z,100912.72
2023-05-24T22:49:55.908Z,100907.19
2023-05-24T22:54:57.593Z,100922.81
2023-05-24T22:59:59.199Z,100919.97
2023-05-24T23:05:01.480Z,100924.09
2023-05-24T23:10:03.487Z,100924.81
2023-05-24T23:15:06.493Z,100914.91
2023-05-24T23:20:10.070Z,100913.56
2023-05-24T23:25:11.752Z,100924.16
2023-05-24T23:30:13.514Z,100924.75
2023-05-24T23:35:15.222Z,100928.28
2023-05-24T23:40:17.038Z,100934.09
2023-05-24T23:45:18.700Z,100943.97
2023-05-24T23:50:22.493Z,100941.41
2023-05-24T23:55:24.449Z,100942.94
